createdAt,value
2023-04-27T00:00:43.016Z,8
2023-04-27T00:01:57.163Z,7
2023-04-27T00:03:11.554Z,6
2023-04-27T00:05:39.854Z,7
2023-04-27T00:06:53.735Z,6
2023-04-27T00:08:07.826Z,7
2023-04-27T00:09:22.048Z,7
2023-04-27T00:11:50.196Z,8
2023-04-27T00:13:04.413Z,10
2023-04-27T00:14:18.501Z,7
2023-04-27T00:15:32.615Z,7
2023-04-27T00:16:46.800Z,8
2023-04-27T00:18:00.869Z,9
2023-04-27T00:19:15.740Z,7
2023-04-27T00:21:43.286Z,7
2023-04-27T00:22:57.409Z,6
2023-04-27T00:24:11.511Z,9
2023-04-27T00:26:39.799Z,6
2023-04-27T00:27:53.974Z,9
2023-04-27T00:29:08.095Z,7
2023-04-27T00:30:22.183Z,8
2023-04-27T00:32:50.510Z,9
2023-04-27T00:34:04.651Z,8
2023-04-27T00:35:18.828Z,8
2023-04-27T00:37:46.994Z,8
2023-04-27T00:39:01.132Z,10
2023-04-27T00:40:15.289Z,10
2023-04-27T00:42:43.538Z,7
2023-04-27T00:43:57.753Z,8
2023-04-27T00:45:11.844Z,8
2023-04-27T00:46:26.102Z,6
2023-04-27T00:47:40.095Z,11
2023-04-27T00:48:54.218Z,8
2023-04-27T00:50:08.367Z,5
2023-04-27T00:51:22.508Z,8
2023-04-27T00:53:50.713Z,8
2023-04-27T00:55:04.912Z,9
2023-04-27T00:56:19.047Z,7
2023-04-27T00:58:47.267Z,11
2023-04-27T01:00:01.379Z,10
2023-04-27T01:01:15.600Z,8
2023-04-27T01:03:43.909Z,9
2023-04-27T01:04:58.063Z,6
2023-04-27T01:06:12.191Z,8
2023-04-27T01:08:48.608Z,8
2023-04-27T01:10:02.662Z,7
2023-04-27T01:11:16.794Z,7
2023-04-27T01:13:45.053Z,7
2023-04-27T01:14:59.225Z,6
2023-04-27T01:16:13.401Z,9
2023-04-27T01:18:41.578Z,8
2023-04-27T01:19:55.740Z,8
2023-04-27T01:21:09.864Z,7
2023-04-27T01:22:24.027Z,8
2023-04-27T01:24:52.320Z,9
2023-04-27T01:26:06.380Z,9
2023-04-27T01:27:20.497Z,8
2023-04-27T01:29:49.019Z,8
2023-04-27T01:31:02.987Z,8
2023-04-27T01:32:17.050Z,8
2023-04-27T01:34:45.454Z,11
2023-04-27T01:35:59.452Z,12
2023-04-27T01:37:13.692Z,8
2023-04-27T01:39:41.854Z,9
2023-04-27T01:40:55.990Z,7
2023-04-27T01:42:10.125Z,9
2023-04-27T01:43:24.262Z,9
2023-04-27T01:45:52.558Z,8
2023-04-27T01:47:06.683Z,9
2023-04-27T01:48:20.754Z,8
2023-04-27T01:50:49.074Z,10
2023-04-27T01:52:03.231Z,11
2023-04-27T01:53:17.373Z,8
2023-04-27T01:55:45.614Z,13
2023-04-27T01:56:59.715Z,8
2023-04-27T01:58:13.854Z,11
2023-04-27T02:00:42.123Z,8
2023-04-27T02:01:56.333Z,10
2023-04-27T02:03:10.546Z,8
2023-04-27T02:04:24.844Z,9
2023-04-27T02:06:52.925Z,8
2023-04-27T02:08:06.933Z,9
2023-04-27T02:09:21.228Z,10
2023-04-27T02:11:49.521Z,10
2023-04-27T02:13:03.493Z,10
2023-04-27T02:14:17.604Z,9
2023-04-27T02:16:45.853Z,8
2023-04-27T02:18:00.063Z,8
2023-04-27T02:19:14.430Z,9
2023-04-27T02:21:42.453Z,8
2023-04-27T02:22:56.505Z,9
2023-04-27T02:24:10.636Z,8
2023-04-27T02:25:24.885Z,7
2023-04-27T02:27:53.147Z,7
2023-04-27T02:29:07.441Z,11
2023-04-27T02:30:21.318Z,10
2023-04-27T02:32:49.727Z,11
2023-04-27T02:34:03.824Z,11
2023-04-27T02:35:17.990Z,10
2023-04-27T02:37:46.112Z,10
2023-04-27T02:39:00.240Z,9
2023-04-27T02:40:14.434Z,13
2023-04-27T02:42:42.683Z,9
2023-04-27T02:43:56.785Z,10
2023-04-27T02:45:10.904Z,9
2023-04-27T02:46:25.108Z,7
2023-04-27T02:48:53.306Z,9
2023-04-27T02:50:07.557Z,11
2023-04-27T02:51:21.630Z,14
2023-04-27T02:53:49.846Z,8
2023-04-27T02:55:04.065Z,8
2023-04-27T02:56:18.108Z,8
2023-04-27T02:58:46.389Z,10
2023-04-27T03:00:00.515Z,11
2023-04-27T03:01:14.662Z,8
2023-04-27T03:03:43.014Z,9
2023-04-27T03:04:57.078Z,8
2023-04-27T03:06:11.211Z,11
2023-04-27T03:08:39.453Z,9
2023-04-27T03:09:53.588Z,8
2023-04-27T03:11:07.759Z,9
2023-04-27T03:12:21.880Z,9
2023-04-27T03:14:50.131Z,8
2023-04-27T03:16:04.313Z,11
2023-04-27T03:17:18.390Z,9
2023-04-27T03:19:46.784Z,10
2023-04-27T03:21:00.774Z,7
2023-04-27T03:22:14.897Z,9
2023-04-27T03:24:43.190Z,9
2023-04-27T03:25:57.309Z,9
2023-04-27T03:27:11.462Z,9
2023-04-27T03:29:39.748Z,9
2023-04-27T03:30:53.884Z,9
2023-04-27T03:32:08.089Z,10
2023-04-27T03:33:22.132Z,8
2023-04-27T03:35:50.367Z,9
2023-04-27T03:37:04.573Z,10
2023-04-27T03:38:18.704Z,8
2023-04-27T03:40:46.929Z,10
2023-04-27T03:42:01.043Z,10
2023-04-27T03:43:15.204Z,8
2023-04-27T03:45:43.542Z,10
2023-04-27T03:46:57.578Z,10
2023-04-27T03:48:11.684Z,10
2023-04-27T03:50:39.996Z,10
2023-04-27T03:51:54.269Z,8
2023-04-27T03:53:08.252Z,11
2023-04-27T03:54:22.473Z,9
2023-04-27T03:56:50.612Z,12
2023-04-27T03:58:04.793Z,10
2023-04-27T03:59:18.914Z,10
2023-04-27T04:01:47.237Z,10
2023-04-27T04:03:01.444Z,9
2023-04-27T04:04:15.672Z,10
2023-04-27T04:06:43.777Z,13
2023-04-27T04:07:57.892Z,9
2023-04-27T04:09:12.252Z,10
2023-04-27T04:11:40.218Z,9
2023-04-27T04:12:54.452Z,11
2023-04-27T04:14:08.513Z,9
2023-04-27T04:15:22.729Z,9
2023-04-27T04:17:50.954Z,10
2023-04-27T04:20:19.238Z,10
2023-04-27T04:22:47.468Z,8
2023-04-27T04:24:01.591Z,9
2023-04-27T04:25:15.735Z,10
2023-04-27T04:27:44.008Z,9
2023-04-27T04:28:58.122Z,10
2023-04-27T04:30:12.282Z,10
2023-04-27T04:32:40.528Z,12
2023-04-27T04:33:54.701Z,9
2023-04-27T04:35:08.759Z,11
2023-04-27T04:36:23.007Z,12
2023-04-27T04:38:51.140Z,9
2023-04-27T04:40:05.405Z,10
2023-04-27T04:41:19.444Z,9
2023-04-27T04:43:47.699Z,8
2023-04-27T04:45:01.827Z,9
2023-04-27T04:46:15.995Z,10
2023-04-27T04:48:44.249Z,9
2023-04-27T04:49:58.399Z,12
2023-04-27T04:51:12.504Z,9
2023-04-27T04:53:40.753Z,9
2023-04-27T04:54:54.914Z,8
2023-04-27T04:56:09.030Z,9
2023-04-27T04:57:23.185Z,8
2023-04-27T04:59:51.431Z,9
2023-04-27T05:01:05.658Z,11
2023-04-27T05:02:19.729Z,8
2023-04-27T05:04:48.153Z,10
2023-04-27T05:06:02.118Z,11
2023-04-27T05:07:19.162Z,9
2023-04-27T05:09:44.525Z,12
2023-04-27T05:10:58.756Z,8
2023-04-27T05:12:12.865Z,10
2023-04-27T05:13:27.021Z,10
2023-04-27T05:14:41.018Z,10
2023-04-27T05:15:55.238Z,9
2023-04-27T05:17:09.303Z,9
2023-04-27T05:18:23.539Z,10
2023-04-27T05:20:51.680Z,12
2023-04-27T05:22:05.863Z,9
2023-04-27T05:23:20.287Z,10
2023-04-27T05:25:48.477Z,11
2023-04-27T05:27:02.643Z,10
2023-04-27T05:28:16.496Z,9
2023-04-27T05:30:44.770Z,9
2023-04-27T05:31:59.051Z,9
2023-04-27T05:33:13.098Z,10
2023-04-27T05:35:41.264Z,10
2023-04-27T05:36:55.523Z,8
2023-04-27T05:38:09.555Z,11
2023-04-27T05:39:23.808Z,7
2023-04-27T05:41:51.949Z,8
2023-04-27T05:43:06.123Z,10
2023-04-27T05:44:20.235Z,9
2023-04-27T05:46:48.509Z,9
2023-04-27T05:48:02.704Z,9
2023-04-27T05:49:16.763Z,10
2023-04-27T05:51:45.105Z,17
2023-04-27T05:52:59.160Z,13
2023-04-27T05:54:13.353Z,11
2023-04-27T05:56:41.572Z,11
2023-04-27T05:58:07.030Z,10
2023-04-27T05:59:09.861Z,11
2023-04-27T06:00:24.030Z,11
2023-04-27T06:02:52.316Z,10
2023-04-27T06:04:06.571Z,10
2023-04-27T06:05:20.504Z,10
2023-04-27T06:07:48.774Z,11
2023-04-27T06:09:02.897Z,10
2023-04-27T06:10:17.056Z,8
2023-04-27T06:12:46.379Z,9
2023-04-27T06:13:59.435Z,13
2023-04-27T06:15:13.622Z,10
2023-04-27T06:17:41.846Z,10
2023-04-27T06:18:55.962Z,11
2023-04-27T06:20:10.152Z,11
2023-04-27T06:21:24.290Z,12
2023-04-27T06:23:52.500Z,10
2023-04-27T06:25:06.644Z,9
2023-04-27T06:26:20.740Z,10
2023-04-27T06:28:49.032Z,9
2023-04-27T06:30:03.258Z,11
2023-04-27T06:31:17.453Z,12
2023-04-27T06:33:45.671Z,13
2023-04-27T06:34:59.699Z,11
2023-04-27T06:36:13.834Z,14
2023-04-27T06:38:42.091Z,11
2023-04-27T06:39:56.225Z,11
2023-04-27T06:41:10.334Z,13
2023-04-27T06:42:24.490Z,10
2023-04-27T06:44:52.818Z,10
2023-04-27T06:46:07.009Z,12
2023-04-27T06:47:21.017Z,14
2023-04-27T06:49:49.836Z,11
2023-04-27T06:51:03.511Z,13
2023-04-27T06:52:17.551Z,11
2023-04-27T06:54:45.964Z,11
2023-04-27T06:55:59.957Z,13
2023-04-27T06:57:14.083Z,13
2023-04-27T06:59:42.362Z,11
2023-04-27T07:00:56.513Z,10
2023-04-27T07:02:10.597Z,10
2023-04-27T07:04:38.993Z,11
2023-04-27T07:05:53.147Z,10
2023-04-27T07:07:07.285Z,10
2023-04-27T07:08:21.256Z,13
2023-04-27T07:10:49.557Z,10
2023-04-27T07:12:03.728Z,12
2023-04-27T07:13:17.818Z,14
2023-04-27T07:15:46.155Z,12
2023-04-27T07:17:00.204Z,10
2023-04-27T07:18:14.539Z,10
2023-04-27T07:20:42.701Z,11
2023-04-27T07:21:56.793Z,9
2023-04-27T07:23:10.864Z,13
2023-04-27T07:24:25.050Z,11
2023-04-27T07:26:53.387Z,11
2023-04-27T07:28:07.594Z,14
2023-04-27T07:29:27.096Z,11
2023-04-27T07:31:52.243Z,13
2023-04-27T07:33:04.145Z,11
2023-04-27T07:34:18.122Z,13
2023-04-27T07:36:46.362Z,16
2023-04-27T07:38:00.467Z,13
2023-04-27T07:39:14.858Z,13
2023-04-27T07:41:42.909Z,11
2023-04-27T07:42:57.012Z,10
2023-04-27T07:44:11.223Z,10
2023-04-27T07:46:39.414Z,11
2023-04-27T07:47:53.580Z,12
2023-04-27T07:49:07.791Z,10
2023-04-27T07:50:21.913Z,12
2023-04-27T07:52:50.118Z,8
2023-04-27T07:54:04.368Z,12
2023-04-27T07:55:18.452Z,10
2023-04-27T07:57:46.639Z,11
2023-04-27T07:59:00.754Z,12
2023-04-27T08:00:14.878Z,12
2023-04-27T08:02:43.426Z,13
2023-04-27T08:03:57.610Z,12
2023-04-27T08:05:11.738Z,12
2023-04-27T08:06:26.053Z,9
2023-04-27T08:08:53.865Z,9
2023-04-27T08:10:08.027Z,12
2023-04-27T08:11:22.148Z,10
2023-04-27T08:13:50.351Z,12
2023-04-27T08:15:04.586Z,9
2023-04-27T08:16:18.646Z,10
2023-04-27T08:18:46.908Z,11
2023-04-27T08:20:01.000Z,10
2023-04-27T08:21:15.277Z,11
2023-04-27T08:23:43.473Z,12
2023-04-27T08:24:57.550Z,12
2023-04-27T08:26:11.715Z,12
2023-04-27T08:28:39.956Z,10
2023-04-27T08:29:54.093Z,10
2023-04-27T08:31:08.325Z,11
2023-04-27T08:32:22.335Z,10
2023-04-27T08:34:50.603Z,9
2023-04-27T08:36:04.833Z,12
2023-04-27T08:37:18.886Z,12
2023-04-27T08:39:47.153Z,11
2023-04-27T08:41:14.213Z,9
2023-04-27T08:42:15.506Z,8
2023-04-27T08:44:43.795Z,10
2023-04-27T08:45:57.838Z,11
2023-04-27T08:47:12.060Z,10
2023-04-27T08:49:40.220Z,9
2023-04-27T08:50:54.467Z,11
2023-04-27T08:52:08.482Z,11
2023-04-27T08:53:22.616Z,10
2023-04-27T08:55:50.900Z,11
2023-04-27T08:57:05.044Z,12
2023-04-27T08:58:19.137Z,13
2023-04-27T09:00:47.422Z,8
2023-04-27T09:02:01.600Z,10
2023-04-27T09:03:15.873Z,10
2023-04-27T09:05:52.711Z,11
2023-04-27T09:06:58.082Z,12
2023-04-27T09:08:12.202Z,11
2023-04-27T09:10:40.459Z,13
2023-04-27T09:11:54.728Z,11
2023-04-27T09:13:08.729Z,10
2023-04-27T09:14:23.026Z,10
2023-04-27T09:16:51.159Z,12
2023-04-27T09:18:05.246Z,15
2023-04-27T09:19:19.425Z,11
2023-04-27T09:21:47.809Z,11
2023-04-27T09:23:01.860Z,11
2023-04-27T09:24:15.945Z,10
2023-04-27T09:26:44.264Z,10
2023-04-27T09:27:58.520Z,15
2023-04-27T09:29:12.766Z,8
2023-04-27T09:31:40.796Z,11
2023-04-27T09:32:54.959Z,10
2023-04-27T09:34:09.026Z,12
2023-04-27T09:35:23.144Z,10
2023-04-27T09:37:51.470Z,11
2023-04-27T09:39:05.643Z,11
2023-04-27T09:40:19.763Z,9
2023-04-27T09:42:47.952Z,9
2023-04-27T09:44:02.096Z,10
2023-04-27T09:45:16.203Z,10
2023-04-27T09:47:44.538Z,11
2023-04-27T09:48:58.653Z,10
2023-04-27T09:50:12.754Z,9
2023-04-27T09:52:41.039Z,11
2023-04-27T09:53:55.211Z,10
2023-04-27T09:55:09.258Z,21
2023-04-27T09:56:23.464Z,16
2023-04-27T09:58:51.669Z,10
2023-04-27T10:00:05.808Z,9
2023-04-27T10:01:19.993Z,10
2023-04-27T10:03:48.362Z,12
2023-04-27T10:05:02.451Z,10
2023-04-27T10:06:16.581Z,10
2023-04-27T10:08:44.736Z,11
2023-04-27T10:09:58.872Z,9
2023-04-27T10:11:12.996Z,10
2023-04-27T10:13:41.299Z,12
2023-04-27T10:14:55.467Z,12
2023-04-27T10:16:09.609Z,9
2023-04-27T10:17:23.751Z,10
2023-04-27T10:19:54.075Z,12
2023-04-27T10:21:06.133Z,11
2023-04-27T10:22:20.174Z,9
2023-04-27T10:24:48.602Z,10
2023-04-27T10:26:02.596Z,9
2023-04-27T10:27:16.817Z,11
2023-04-27T10:29:45.094Z,8
2023-04-27T10:30:59.171Z,10
2023-04-27T10:32:13.268Z,8
2023-04-27T10:34:41.516Z,11
2023-04-27T10:35:55.689Z,7
2023-04-27T10:37:09.782Z,8
2023-04-27T10:38:23.961Z,11
2023-04-27T10:40:52.224Z,9
2023-04-27T10:42:06.352Z,9
2023-04-27T10:43:20.439Z,11
2023-04-27T10:45:48.749Z,11
2023-04-27T10:47:02.919Z,9
2023-04-27T10:48:17.073Z,7
2023-04-27T10:50:45.680Z,10
2023-04-27T10:51:59.418Z,10
2023-04-27T10:53:13.619Z,12
2023-04-27T10:55:41.894Z,12
2023-04-27T10:56:56.021Z,10
2023-04-27T10:58:10.061Z,8
2023-04-27T10:59:24.320Z,9
2023-04-27T11:01:52.552Z,9
2023-04-27T11:03:06.681Z,12
2023-04-27T11:04:20.760Z,10
2023-04-27T11:06:49.031Z,9
2023-04-27T11:08:03.121Z,9
2023-04-27T11:09:17.343Z,10
2023-04-27T11:11:45.582Z,8
2023-04-27T11:12:59.664Z,12
2023-04-27T11:14:14.142Z,8
2023-04-27T11:16:42.212Z,7
2023-04-27T11:17:56.281Z,8
2023-04-27T11:19:10.304Z,7
2023-04-27T11:20:24.458Z,9
2023-04-27T11:22:52.822Z,9
2023-04-27T11:24:06.996Z,12
2023-04-27T11:25:21.081Z,8
2023-04-27T11:27:49.257Z,8
2023-04-27T11:29:03.396Z,8
2023-04-27T11:30:17.535Z,9
2023-04-27T11:32:45.910Z,11
2023-04-27T11:33:59.997Z,10
2023-04-27T11:35:14.059Z,8
2023-04-27T11:37:42.366Z,11
2023-04-27T11:38:56.497Z,10
2023-04-27T11:40:10.596Z,14
2023-04-27T11:41:24.797Z,8
2023-04-27T11:43:53.084Z,6
2023-04-27T11:45:07.198Z,10
2023-04-27T11:46:21.422Z,12
2023-04-27T11:48:49.526Z,10
2023-04-27T11:50:03.635Z,9
2023-04-27T11:51:17.895Z,9
2023-04-27T11:53:46.183Z,7
2023-04-27T11:55:00.196Z,9
2023-04-27T11:56:14.340Z,8
2023-04-27T11:58:44.350Z,10
2023-04-27T11:59:56.715Z,14
2023-04-27T12:01:10.864Z,9
2023-04-27T12:02:25.200Z,10
2023-04-27T12:04:53.546Z,8
2023-04-27T12:06:27.636Z,8
2023-04-27T12:07:21.491Z,9
2023-04-27T12:09:49.778Z,12
2023-04-27T12:11:03.913Z,10
2023-04-27T12:12:18.128Z,10
2023-04-27T12:14:46.317Z,10
2023-04-27T12:16:01.131Z,9
2023-04-27T12:17:14.619Z,9
2023-04-27T12:19:42.950Z,10
2023-04-27T12:20:56.996Z,8
2023-04-27T12:22:11.129Z,8
2023-04-27T12:23:25.289Z,7
2023-04-27T12:25:53.535Z,7
2023-04-27T12:27:07.714Z,7
2023-04-27T12:28:21.840Z,11
2023-04-27T12:30:50.483Z,9
2023-04-27T12:32:04.188Z,9
2023-04-27T12:33:18.446Z,8
2023-04-27T12:35:46.625Z,9
2023-04-27T12:37:00.683Z,9
2023-04-27T12:38:14.857Z,11
2023-04-27T12:40:43.147Z,7
2023-04-27T12:41:57.242Z,7
2023-04-27T12:43:11.448Z,12
2023-04-27T12:45:39.639Z,13
2023-04-27T12:46:53.958Z,9
2023-04-27T12:48:07.947Z,7
2023-04-27T12:49:22.068Z,6
2023-04-27T12:51:50.326Z,8
2023-04-27T12:53:04.444Z,7
2023-04-27T12:54:18.590Z,8
2023-04-27T12:55:34.414Z,6
2023-04-27T12:56:46.850Z,9
2023-04-27T12:58:00.999Z,7
2023-04-27T12:59:15.189Z,8
2023-04-27T13:01:43.657Z,9
2023-04-27T13:02:57.704Z,6
2023-04-27T13:04:12.144Z,7
2023-04-27T13:06:39.921Z,8
2023-04-27T13:07:54.052Z,6
2023-04-27T13:09:08.201Z,8
2023-04-27T13:10:22.404Z,8
2023-04-27T13:12:50.672Z,7
2023-04-27T13:14:04.745Z,9
2023-04-27T13:15:18.830Z,7
2023-04-27T13:17:47.138Z,8
2023-04-27T13:19:01.272Z,7
2023-04-27T13:20:15.449Z,9
2023-04-27T13:22:43.628Z,8
2023-04-27T13:24:00.127Z,6
2023-04-27T13:25:11.942Z,7
2023-04-27T13:27:40.171Z,6
2023-04-27T13:28:54.324Z,7
2023-04-27T13:30:08.445Z,7
2023-04-27T13:31:22.714Z,5
2023-04-27T13:33:59.058Z,6
2023-04-27T13:35:13.182Z,5
2023-04-27T13:37:41.508Z,9
2023-04-27T13:38:55.592Z,6
2023-04-27T13:40:09.812Z,10
2023-04-27T13:41:23.934Z,9
2023-04-27T13:43:52.124Z,5
2023-04-27T13:45:06.233Z,5
2023-04-27T13:46:20.380Z,10
2023-04-27T13:48:48.693Z,6
2023-04-27T13:50:02.819Z,8
2023-04-27T13:51:16.921Z,9
2023-04-27T13:53:45.184Z,7
2023-04-27T13:54:59.294Z,7
2023-04-27T13:56:13.508Z,8
2023-04-27T13:58:41.704Z,7
2023-04-27T13:59:55.907Z,7
2023-04-27T14:01:09.990Z,6
2023-04-27T14:02:24.240Z,7
2023-04-27T14:04:52.439Z,8
2023-04-27T14:06:06.528Z,6
2023-04-27T14:07:20.613Z,5
2023-04-27T14:09:48.890Z,6
2023-04-27T14:11:03.039Z,7
2023-04-27T14:12:17.181Z,8
2023-04-27T14:14:45.425Z,6
2023-04-27T14:15:59.586Z,5
2023-04-27T14:17:13.737Z,9
2023-04-27T14:19:42.006Z,7
2023-04-27T14:20:56.135Z,7
2023-04-27T14:22:10.224Z,8
2023-04-27T14:23:24.391Z,8
2023-04-27T14:25:52.713Z,8
2023-04-27T14:27:06.784Z,8
2023-04-27T14:28:20.901Z,8
2023-04-27T14:30:49.190Z,11
2023-04-27T14:32:03.452Z,14
2023-04-27T14:33:17.587Z,7
2023-04-27T14:35:45.922Z,10
2023-04-27T14:36:59.874Z,6
2023-04-27T14:38:14.004Z,7
2023-04-27T14:40:42.264Z,6
2023-04-27T14:41:56.452Z,10
2023-04-27T14:43:10.476Z,7
2023-04-27T14:44:24.681Z,9
2023-04-27T14:46:53.049Z,6
2023-04-27T14:48:07.149Z,7
2023-04-27T14:49:21.215Z,7
2023-04-27T14:51:49.459Z,7
2023-04-27T14:53:03.596Z,6
2023-04-27T14:54:17.717Z,5
2023-04-27T14:56:46.053Z,7
2023-04-27T14:58:00.117Z,7
2023-04-27T14:59:14.446Z,9
2023-04-27T15:01:42.653Z,6
2023-04-27T15:02:56.719Z,6
2023-04-27T15:04:11.041Z,8
2023-04-27T15:06:39.057Z,8
2023-04-27T15:07:53.174Z,10
2023-04-27T15:09:07.336Z,6
2023-04-27T15:10:21.461Z,8
2023-04-27T15:12:49.871Z,6
2023-04-27T15:14:03.854Z,5
2023-04-27T15:15:18.034Z,8
2023-04-27T15:17:46.347Z,6
2023-04-27T15:19:00.374Z,7
2023-04-27T15:20:14.571Z,7
2023-04-27T15:22:42.781Z,8
2023-04-27T15:23:56.923Z,6
2023-04-27T15:25:11.098Z,7
2023-04-27T15:26:25.263Z,7
2023-04-27T15:28:53.483Z,8
2023-04-27T15:30:07.779Z,8
2023-04-27T15:31:21.820Z,6
2023-04-27T15:33:50.001Z,6
2023-04-27T15:35:04.228Z,5
2023-04-27T15:36:18.373Z,8
2023-04-27T15:38:46.556Z,7
2023-04-27T15:40:00.626Z,6
2023-04-27T15:41:14.808Z,8
2023-04-27T15:43:43.077Z,7
2023-04-27T15:44:57.219Z,9
2023-04-27T15:46:11.388Z,6
2023-04-27T15:47:25.488Z,7
2023-04-27T15:49:57.464Z,8
2023-04-27T15:51:10.295Z,12
2023-04-27T15:52:22.123Z,4
2023-04-27T15:54:50.238Z,7
2023-04-27T15:56:04.416Z,6
2023-04-27T15:57:18.518Z,6
2023-04-27T15:59:46.797Z,6
2023-04-27T16:01:00.942Z,6
2023-04-27T16:02:15.242Z,6
2023-04-27T16:04:43.442Z,9
2023-04-27T16:05:57.487Z,9
2023-04-27T16:07:11.574Z,6
2023-04-27T16:09:39.884Z,6
2023-04-27T16:10:54.026Z,5
2023-04-27T16:12:08.138Z,6
2023-04-27T16:13:22.324Z,7
2023-04-27T16:15:50.509Z,5
2023-04-27T16:17:04.735Z,8
2023-04-27T16:18:18.818Z,4
2023-04-27T16:20:47.074Z,5
2023-04-27T16:22:01.184Z,5
2023-04-27T16:23:15.333Z,7
2023-04-27T16:25:43.605Z,6
2023-04-27T16:26:57.734Z,6
2023-04-27T16:28:11.885Z,5
2023-04-27T16:29:26.089Z,5
2023-04-27T16:30:40.138Z,7
2023-04-27T16:31:54.372Z,6
2023-04-27T16:33:08.443Z,6
2023-04-27T16:34:22.662Z,8
2023-04-27T16:36:50.822Z,7
2023-04-27T16:38:04.988Z,7
2023-04-27T16:39:19.074Z,5
2023-04-27T16:41:47.339Z,7
2023-04-27T16:43:01.471Z,6
2023-04-27T16:44:15.608Z,7
2023-04-27T16:46:43.915Z,5
2023-04-27T16:47:58.051Z,8
2023-04-27T16:49:12.237Z,6
2023-04-27T16:51:40.411Z,7
2023-04-27T16:52:54.646Z,6
2023-04-27T16:54:08.681Z,7
2023-04-27T16:55:22.890Z,7
2023-04-27T16:57:51.160Z,5
2023-04-27T16:59:05.316Z,6
2023-04-27T17:00:19.341Z,7
2023-04-27T17:02:47.878Z,8
2023-04-27T17:04:01.874Z,6
2023-04-27T17:05:16.024Z,5
2023-04-27T17:07:44.170Z,7
2023-04-27T17:08:58.263Z,5
2023-04-27T17:10:12.400Z,9
2023-04-27T17:12:40.692Z,6
2023-04-27T17:13:54.820Z,7
2023-04-27T17:15:08.951Z,5
2023-04-27T17:16:23.203Z,6
2023-04-27T17:18:51.328Z,5
2023-04-27T17:20:05.536Z,6
2023-04-27T17:21:19.610Z,10
2023-04-27T17:23:47.870Z,7
2023-04-27T17:25:02.010Z,7
2023-04-27T17:26:16.232Z,6
2023-04-27T17:28:44.492Z,6
2023-04-27T17:29:58.543Z,6
2023-04-27T17:31:12.713Z,7
2023-04-27T17:33:40.954Z,6
2023-04-27T17:34:55.089Z,6
2023-04-27T17:36:09.241Z,8
2023-04-27T17:37:23.387Z,7
2023-04-27T17:39:51.608Z,8
2023-04-27T17:41:05.757Z,6
2023-04-27T17:42:19.898Z,6
2023-04-27T17:44:48.150Z,5
2023-04-27T17:46:02.344Z,5
2023-04-27T17:47:16.420Z,6
2023-04-27T17:49:44.742Z,7
2023-04-27T17:50:58.837Z,7
2023-04-27T17:52:12.963Z,7
2023-04-27T17:54:41.292Z,9
2023-04-27T17:55:55.448Z,7
2023-04-27T17:57:09.534Z,7
2023-04-27T17:58:23.622Z,8
2023-04-27T18:00:51.944Z,5
2023-04-27T18:02:06.363Z,6
2023-04-27T18:03:20.279Z,6
2023-04-27T18:05:48.426Z,9
2023-04-27T18:07:02.899Z,7
2023-04-27T18:08:16.736Z,6
2023-04-27T18:10:45.059Z,9
2023-04-27T18:11:59.094Z,6
2023-04-27T18:13:13.209Z,8
2023-04-27T18:15:41.454Z,8
2023-04-27T18:16:55.786Z,10
2023-04-27T18:18:10.177Z,5
2023-04-27T18:19:23.965Z,6
2023-04-27T18:21:52.271Z,7
2023-04-27T18:23:06.324Z,6
2023-04-27T18:24:20.398Z,10
2023-04-27T18:26:48.703Z,8
2023-04-27T18:28:05.234Z,9
2023-04-27T18:29:16.947Z,9
2023-04-27T18:31:45.275Z,6
2023-04-27T18:32:59.492Z,10
2023-04-27T18:34:13.515Z,7
2023-04-27T18:36:41.805Z,7
2023-04-27T18:37:55.917Z,7
2023-04-27T18:39:10.036Z,7
2023-04-27T18:40:24.155Z,5
2023-04-27T18:42:52.491Z,6
2023-04-27T18:44:06.646Z,8
2023-04-27T18:45:20.685Z,6
2023-04-27T18:47:48.956Z,9
2023-04-27T18:49:03.168Z,7
2023-04-27T18:50:17.237Z,8
2023-04-27T18:52:45.570Z,8
2023-04-27T18:53:59.630Z,8
2023-04-27T18:55:13.860Z,7
2023-04-27T18:57:42.013Z,8
2023-04-27T18:58:56.177Z,6
2023-04-27T19:00:10.263Z,6
2023-04-27T19:01:24.460Z,7
2023-04-27T19:03:52.855Z,6
2023-04-27T19:05:12.077Z,7
2023-04-27T19:06:21.399Z,6
2023-04-27T19:08:49.207Z,9
2023-04-27T19:10:03.413Z,7
2023-04-27T19:11:17.548Z,8
2023-04-27T19:13:45.908Z,7
2023-04-27T19:14:59.954Z,7
2023-04-27T19:16:14.138Z,8
2023-04-27T19:18:42.421Z,11
2023-04-27T19:19:56.544Z,5
2023-04-27T19:21:10.550Z,6
2023-04-27T19:22:24.688Z,6
2023-04-27T19:24:52.961Z,7
2023-04-27T19:26:12.971Z,5
2023-04-27T19:27:21.201Z,6
2023-04-27T19:29:49.494Z,5
2023-04-27T19:31:03.703Z,7
2023-04-27T19:32:17.875Z,9
2023-04-27T19:34:46.080Z,6
2023-04-27T19:36:00.256Z,6
2023-04-27T19:37:14.329Z,5
2023-04-27T19:39:42.613Z,7
2023-04-27T19:40:56.687Z,5
2023-04-27T19:42:11.177Z,4
2023-04-27T19:43:25.020Z,6
2023-04-27T19:45:53.361Z,6
2023-04-27T19:47:07.351Z,5
2023-04-27T19:48:21.448Z,7
2023-04-27T19:50:49.765Z,8
2023-04-27T19:52:03.912Z,7
2023-04-27T19:53:18.040Z,5
2023-04-27T19:55:46.321Z,7
2023-04-27T19:57:00.411Z,5
2023-04-27T19:58:14.580Z,6
2023-04-27T20:00:42.822Z,4
2023-04-27T20:01:57.015Z,5
2023-04-27T20:03:11.145Z,7
2023-04-27T20:05:39.495Z,4
2023-04-27T20:06:53.613Z,8
2023-04-27T20:08:07.710Z,8
2023-04-27T20:09:21.717Z,4
2023-04-27T20:11:50.034Z,4
2023-04-27T20:13:04.302Z,5
2023-04-27T20:14:18.515Z,6
2023-04-27T20:16:46.572Z,4
2023-04-27T20:18:00.680Z,7
2023-04-27T20:19:14.833Z,4
2023-04-27T20:21:43.090Z,6
2023-04-27T20:22:57.217Z,5
2023-04-27T20:24:11.326Z,5
2023-04-27T20:26:39.607Z,6
2023-04-27T20:27:53.784Z,6
2023-04-27T20:29:07.922Z,7
2023-04-27T20:30:22.016Z,3
2023-04-27T20:32:50.307Z,6
2023-04-27T20:34:04.491Z,5
2023-04-27T20:35:18.531Z,4
2023-04-27T20:37:46.892Z,7
2023-04-27T20:39:00.938Z,7
2023-04-27T20:40:15.159Z,5
2023-04-27T20:42:43.477Z,5
2023-04-27T20:43:57.499Z,6
2023-04-27T20:45:11.580Z,5
2023-04-27T20:47:39.907Z,4
2023-04-27T20:48:54.044Z,5
2023-04-27T20:50:08.172Z,5
2023-04-27T20:51:22.290Z,4
2023-04-27T20:53:50.531Z,10
2023-04-27T20:55:04.666Z,9
2023-04-27T20:56:18.807Z,9
2023-04-27T20:58:47.074Z,7
2023-04-27T21:00:01.200Z,8
2023-04-27T21:01:15.377Z,6
2023-04-27T21:03:43.797Z,6
2023-04-27T21:04:57.875Z,7
2023-04-27T21:06:11.912Z,7
2023-04-27T21:07:25.996Z,7
2023-04-27T21:08:40.358Z,9
2023-04-27T21:09:54.267Z,8
2023-04-27T21:11:08.406Z,6
2023-04-27T21:12:22.538Z,6
2023-04-27T21:14:50.769Z,7
2023-04-27T21:16:04.933Z,5
2023-04-27T21:17:19.068Z,4
2023-04-27T21:19:47.353Z,5
2023-04-27T21:21:01.438Z,7
2023-04-27T21:22:15.965Z,6
2023-04-27T21:24:43.904Z,5
2023-04-27T21:25:58.003Z,5
2023-04-27T21:27:12.120Z,5
2023-04-27T21:29:40.377Z,5
2023-04-27T21:30:54.542Z,6
2023-04-27T21:32:08.651Z,7
2023-04-27T21:33:22.800Z,6
2023-04-27T21:35:51.033Z,8
2023-04-27T21:37:05.434Z,7
2023-04-27T21:38:19.341Z,7
2023-04-27T21:40:47.599Z,6
2023-04-27T21:42:01.709Z,7
2023-04-27T21:43:15.881Z,4
2023-04-27T21:45:44.171Z,6
2023-04-27T21:46:58.268Z,7
2023-04-27T21:48:12.435Z,8
2023-04-27T21:50:48.848Z,6
2023-04-27T21:52:03.053Z,6
2023-04-27T21:53:17.214Z,4
2023-04-27T21:55:45.369Z,7
2023-04-27T21:56:59.536Z,5
2023-04-27T21:58:13.730Z,7
2023-04-27T22:00:41.987Z,5
2023-04-27T22:01:56.170Z,7
2023-04-27T22:03:10.285Z,7
2023-04-27T22:04:24.597Z,6
2023-04-27T22:06:52.674Z,8
2023-04-27T22:08:06.861Z,5
2023-04-27T22:09:20.820Z,8
2023-04-27T22:11:49.118Z,6
2023-04-27T22:13:15.048Z,8
2023-04-27T22:14:17.657Z,7
2023-04-27T22:16:45.648Z,6
2023-04-27T22:17:59.882Z,8
2023-04-27T22:19:13.931Z,8
2023-04-27T22:21:42.191Z,5
2023-04-27T22:22:56.360Z,6
2023-04-27T22:24:10.462Z,6
2023-04-27T22:25:24.580Z,5
2023-04-27T22:27:52.903Z,6
2023-04-27T22:29:07.059Z,6
2023-04-27T22:30:21.113Z,5
2023-04-27T22:32:49.433Z,6
2023-04-27T22:34:03.508Z,5
2023-04-27T22:37:46.058Z,8
2023-04-27T22:39:00.152Z,6
2023-04-27T22:40:14.326Z,5
2023-04-27T22:42:42.493Z,6
2023-04-27T22:43:56.617Z,6
2023-04-27T22:45:10.697Z,6
2023-04-27T22:46:24.901Z,6
2023-04-27T22:48:53.194Z,6
2023-04-27T22:50:07.273Z,6
2023-04-27T22:51:21.363Z,6
2023-04-27T22:53:49.683Z,10
2023-04-27T22:55:03.859Z,6
2023-04-27T22:56:17.989Z,7
2023-04-27T22:58:46.264Z,6
2023-04-27T23:00:00.366Z,8
2023-04-27T23:01:14.586Z,6
2023-04-27T23:03:42.878Z,8
2023-04-27T23:04:56.863Z,8
2023-04-27T23:06:10.958Z,8
2023-04-27T23:08:39.273Z,6
2023-04-27T23:09:53.397Z,6
2023-04-27T23:11:07.633Z,9
2023-04-27T23:12:21.652Z,7
2023-04-27T23:14:50.234Z,6
2023-04-27T23:16:04.059Z,7
2023-04-27T23:17:18.216Z,7
2023-04-27T23:19:46.491Z,7
2023-04-27T23:21:00.588Z,6
2023-04-27T23:22:14.722Z,6
2023-04-27T23:24:43.041Z,8
2023-04-27T23:25:57.117Z,9
2023-04-27T23:27:11.317Z,7
2023-04-27T23:28:25.463Z,8
2023-04-27T23:30:53.707Z,7
2023-04-27T23:32:07.890Z,6